Time;durP1;ratioP1;P1;durP2;ratioP2;P2;SDS_P1;SDS_P2;PMS_P1;PMS_P2;Temp;Humidity;BMP_temperature;BMP_pressure;BME280_temperature;BME280_humidity;BME280_pressure;Samples;Min_cycle;Max_cycle;Signal;HPM_P1;HPM_P2
2022/09/14 00:01:27;;;;;;;29.75;8.60;;;10.50;99.90;;;;;;4985113;28;20034;-91
2022/09/14 00:04:15;;;;;;;19.50;7.60;;;10.40;99.90;;;;;;4982919;28;20045;-91
2022/09/14 00:06:42;;;;;;;92.75;9.55;;;10.30;99.90;;;;;;4981360;28;20047;-91
2022/09/14 00:09:12;;;;;;;50.40;5.22;;;10.30;99.90;;;;;;4989550;28;20030;-91
2022/09/14 00:11:38;;;;;;;20.33;5.45;;;10.10;99.90;;;;;;4995292;28;20029;-90
2022/09/14 00:14:05;;;;;;;20.13;5.35;;;10.10;99.90;;;;;;4993541;28;20030;-90
2022/09/14 00:16:37;;;;;;;9.30;4.10;;;10.00;99.90;;;;;;4967240;28;20042;-90
2022/09/14 00:19:06;;;;;;;36.10;5.28;;;10.10;99.90;;;;;;4979825;28;20018;-91
2022/09/14 00:21:34;;;;;;;28.77;6.25;;;10.10;99.90;;;;;;4979509;28;20058;-91
2022/09/14 00:24:00;;;;;;;11.50;3.80;;;10.00;99.90;;;;;;4964187;28;20031;-91
2022/09/14 00:26:26;;;;;;;30.00;4.40;;;10.00;99.90;;;;;;4980152;28;20033;-91
2022/09/14 00:28:55;;;;;;;9.73;4.63;;;10.00;99.90;;;;;;4979471;28;20062;-91
2022/09/14 00:31:22;;;;;;;43.53;5.00;;;9.90;99.90;;;;;;4996310;28;20113;-91
2022/09/14 00:33:49;;;;;;;7.88;4.53;;;9.90;99.90;;;;;;4963684;28;20050;-91
2022/09/14 00:36:17;;;;;;;7.97;4.07;;;9.90;99.90;;;;;;4980108;28;20096;-90
2022/09/14 00:38:49;;;;;;;5.60;3.88;;;9.90;99.90;;;;;;4995164;28;20097;-91
2022/09/14 00:41:23;;;;;;;7.47;4.13;;;9.90;99.90;;;;;;4978657;28;20026;-91
2022/09/14 00:44:06;;;;;;;5.82;4.50;;;9.90;99.90;;;;;;4977774;28;20480;-90
2022/09/14 00:46:58;;;;;;;10.10;4.07;;;9.90;99.90;;;;;;4975852;28;20412;-91
2022/09/14 00:49:33;;;;;;;12.05;5.20;;;9.90;99.90;;;;;;4936154;29;20111;-91
2022/09/14 00:52:17;;;;;;;14.63;5.28;;;9.90;99.90;;;;;;4920419;29;20557;-91
2022/09/14 00:54:46;;;;;;;10.02;4.53;;;10.00;99.90;;;;;;4920316;29;20036;-91
2022/09/14 00:57:13;;;;;;;14.55;5.30;;;10.00;99.90;;;;;;4920302;29;20063;-91
2022/09/14 00:59:45;;;;;;;11.95;5.07;;;10.00;99.90;;;;;;4922039;29;20046;-91
2022/09/14 01:02:15;;;;;;;9.38;4.53;;;10.00;99.90;;;;;;4925246;29;20046;-90
2022/09/14 01:04:42;;;;;;;12.97;4.37;;;10.00;99.90;;;;;;4920455;29;20470;-91
2022/09/14 01:07:49;;;;;;;11.63;4.90;;;9.90;99.90;;;;;;4921956;29;20072;-90
2022/09/14 01:10:21;;;;;;;12.18;4.93;;;9.90;99.90;;;;;;4943709;29;20123;-90
2022/09/14 01:13:12;;;;;;;19.60;5.40;;;9.90;99.90;;;;;;4920483;29;20039;-91
2022/09/14 01:15:44;;;;;;;25.73;6.15;;;9.80;99.90;;;;;;4920228;29;20024;-91
2022/09/14 01:18:19;;;;;;;15.35;5.97;;;9.90;99.90;;;;;;4935856;29;20028;-91
2022/09/14 01:20:49;;;;;;;20.77;6.32;;;9.80;99.90;;;;;;4918762;29;20043;-90
2022/09/14 01:23:54;;;;;;;11.82;5.18;;;9.80;99.90;;;;;;4919271;29;20050;-90
2022/09/14 01:26:47;;;;;;;32.90;7.47;;;9.80;99.90;;;;;;4937557;28;20034;-91
2022/09/14 01:29:35;;;;;;;29.17;7.70;;;9.80;99.90;;;;;;4977721;28;20052;-91
2022/09/14 01:32:13;;;;;;;29.23;7.78;;;9.80;99.90;;;;;;4977530;28;20038;-90
2022/09/14 01:34:52;;;;;;;32.25;8.10;;;9.80;99.90;;;;;;4977498;28;20041;-91
2022/09/14 01:37:23;;;;;;;44.05;7.50;;;9.90;99.90;;;;;;4977477;28;20038;-90
2022/09/14 01:39:53;;;;;;;21.80;6.32;;;9.80;99.90;;;;;;4994511;28;20026;-91
2022/09/14 01:42:22;;;;;;;23.85;6.10;;;9.70;99.90;;;;;;4977682;28;20034;-91
2022/09/14 01:44:54;;;;;;;15.43;5.68;;;9.70;99.90;;;;;;4995252;28;20038;-91
2022/09/14 01:47:35;;;;;;;16.98;6.47;;;9.70;99.90;;;;;;4977160;28;20038;-91
2022/09/14 01:50:12;;;;;;;22.40;8.23;;;9.70;99.90;;;;;;4978065;28;20030;-91
2022/09/14 01:52:50;;;;;;;23.33;8.23;;;9.80;99.90;;;;;;4977610;28;20030;-91
2022/09/14 01:55:21;;;;;;;47.75;9.63;;;9.80;99.90;;;;;;5004200;28;20026;-91
2022/09/14 01:57:52;;;;;;;30.00;11.07;;;9.80;99.90;;;;;;5011764;28;20052;-91
2022/09/14 02:00:21;;;;;;;31.27;11.45;;;9.80;99.90;;;;;;4991350;28;20030;-91
2022/09/14 02:03:04;;;;;;;30.77;11.32;;;9.90;99.90;;;;;;4978036;28;20026;-91
2022/09/14 02:05:40;;;;;;;35.78;13.25;;;9.90;99.90;;;;;;4994789;28;20428;-90
2022/09/14 02:08:06;;;;;;;38.28;12.60;;;9.90;99.90;;;;;;4976924;28;20188;-90
2022/09/14 02:10:32;;;;;;;29.75;11.95;;;9.80;99.90;;;;;;4977218;28;20077;-91
2022/09/14 02:12:59;;;;;;;50.75;13.30;;;9.90;99.90;;;;;;4976998;28;20037;-91
2022/09/14 02:15:26;;;;;;;31.65;12.40;;;9.90;99.90;;;;;;4960981;28;20041;-91
2022/09/14 02:17:52;;;;;;;26.63;13.00;;;9.90;99.90;;;;;;4977078;28;20547;-91
2022/09/14 02:20:38;;;;;;;43.30;15.05;;;9.90;99.90;;;;;;4976794;28;20080;-90
2022/09/14 02:23:04;;;;;;;35.80;13.93;;;9.90;99.90;;;;;;4976280;28;20062;-91
2022/09/14 02:25:34;;;;;;;28.15;12.52;;;9.90;99.90;;;;;;4976824;28;20030;-90
2022/09/14 02:27:59;;;;;;;29.02;12.85;;;9.90;99.90;;;;;;4976421;28;20575;-90
2022/09/14 02:30:28;;;;;;;27.15;11.93;;;9.90;99.90;;;;;;4976985;28;20073;-92
2022/09/14 02:33:35;;;;;;;29.17;13.30;;;9.90;99.90;;;;;;4977058;28;20027;-91
2022/09/14 02:36:10;;;;;;;31.83;13.15;;;9.90;99.90;;;;;;4899108;29;20497;-91
2022/09/14 02:38:42;;;;;;;38.28;13.32;;;10.00;99.90;;;;;;4916989;29;20078;-91
2022/09/14 02:41:20;;;;;;;46.22;14.18;;;9.90;99.90;;;;;;4898787;29;20100;-92
2022/09/14 02:43:49;;;;;;;145.02;15.82;;;9.90;99.90;;;;;;4899261;29;20040;-90
2022/09/14 02:46:28;;;;;;;92.68;12.23;;;9.90;99.90;;;;;;4899176;29;20033;-90
2022/09/14 02:49:05;;;;;;;42.38;12.77;;;9.90;99.90;;;;;;4904562;29;20040;-91
2022/09/14 02:51:40;;;;;;;39.53;13.45;;;9.90;99.90;;;;;;4908871;29;20024;-90
2022/09/14 02:54:14;;;;;;;54.00;11.15;;;9.90;99.90;;;;;;4908354;29;20504;-92
2022/09/14 02:56:40;;;;;;;44.60;13.18;;;9.90;99.90;;;;;;4908122;29;20035;-92
2022/09/14 02:59:07;;;;;;;32.88;12.52;;;9.90;99.90;;;;;;4905843;29;20628;-91
2022/09/14 03:01:33;;;;;;;30.45;12.65;;;9.90;99.90;;;;;;4904424;29;20036;-91
2022/09/14 03:03:59;;;;;;;29.98;12.43;;;9.90;99.90;;;;;;4901341;29;20168;-91
2022/09/14 03:06:24;;;;;;;26.08;12.27;;;9.90;99.90;;;;;;4902399;29;20040;-90
2022/09/14 03:08:50;;;;;;;66.55;13.63;;;10.00;99.90;;;;;;4903199;29;20413;-91
2022/09/14 03:11:16;;;;;;;26.90;12.88;;;9.90;99.90;;;;;;4903687;29;20099;-90
2022/09/14 03:13:42;;;;;;;31.83;13.65;;;9.90;99.90;;;;;;4956366;28;20046;-91
2022/09/14 03:16:10;;;;;;;32.38;12.60;;;9.90;99.90;;;;;;4969943;28;20622;-91
2022/09/14 03:18:37;;;;;;;37.13;13.25;;;9.90;99.90;;;;;;4965328;28;20122;-91
2022/09/14 03:21:05;;;;;;;154.90;14.77;;;9.90;99.90;;;;;;4959803;28;20062;-90
2022/09/14 03:23:37;;;;;;;46.17;13.48;;;9.90;99.90;;;;;;4959986;28;20050;-90
2022/09/14 03:26:11;;;;;;;30.35;13.02;;;9.90;99.90;;;;;;4959798;28;20062;-91
2022/09/14 03:28:37;;;;;;;31.65;14.35;;;9.90;99.90;;;;;;4959685;28;20077;-91
2022/09/14 03:31:04;;;;;;;31.15;12.52;;;9.90;99.90;;;;;;4959861;28;20062;-91
2022/09/14 03:33:31;;;;;;;28.55;12.30;;;9.90;99.90;;;;;;4960057;28;20073;-91
2022/09/14 03:35:57;;;;;;;28.25;13.35;;;9.90;99.90;;;;;;4963465;28;20018;-92
2022/09/14 03:38:23;;;;;;;29.67;13.45;;;10.00;99.90;;;;;;4979109;28;20058;-91
2022/09/14 03:40:49;;;;;;;34.20;14.07;;;10.00;99.90;;;;;;4980325;28;20117;-91
2022/09/14 03:43:14;;;;;;;26.13;12.13;;;10.00;99.90;;;;;;4992411;28;20061;-91
2022/09/14 03:45:41;;;;;;;28.90;13.98;;;10.00;99.90;;;;;;4992582;28;20090;-92
2022/09/14 03:48:14;;;;;;;29.70;12.65;;;10.00;99.90;;;;;;4998433;28;20061;-91
2022/09/14 03:50:41;;;;;;;28.98;13.25;;;10.10;99.90;;;;;;4979034;28;20023;-91
2022/09/14 03:53:09;;;;;;;31.33;12.43;;;10.10;99.90;;;;;;4979177;28;20057;-91
2022/09/14 03:55:35;;;;;;;32.55;12.38;;;10.10;99.90;;;;;;4978895;28;20038;-91
2022/09/14 03:58:00;;;;;;;33.10;13.13;;;10.10;99.90;;;;;;4978965;28;20018;-91
2022/09/14 04:00:28;;;;;;;26.98;11.80;;;10.10;99.90;;;;;;4979188;28;20452;-92
2022/09/14 04:02:53;;;;;;;24.55;11.07;;;10.10;99.90;;;;;;4977503;28;20133;-90
2022/09/14 04:05:22;;;;;;;28.55;13.00;;;10.20;99.90;;;;;;4979339;28;20113;-90
2022/09/14 04:07:50;;;;;;;29.73;13.13;;;10.10;99.90;;;;;;4978574;28;20055;-92
2022/09/14 04:10:16;;;;;;;26.38;11.98;;;10.10;99.90;;;;;;4979021;28;20029;-92
2022/09/14 04:12:42;;;;;;;24.25;10.65;;;10.10;99.90;;;;;;4979188;28;20041;-92
2022/09/14 04:15:08;;;;;;;26.83;11.75;;;10.10;99.90;;;;;;4978442;28;20109;-92
2022/09/14 04:17:35;;;;;;;27.42;11.73;;;10.10;99.90;;;;;;4978575;28;20030;-92
2022/09/14 04:20:06;;;;;;;29.23;11.95;;;10.10;99.90;;;;;;4978726;28;20236;-91
2022/09/14 04:22:33;;;;;;;26.73;12.70;;;10.10;99.90;;;;;;4976951;28;20058;-91
2022/09/14 04:25:06;;;;;;;23.98;11.32;;;10.10;99.90;;;;;;4952891;28;20030;-91
2022/09/14 04:27:31;;;;;;;25.67;12.13;;;10.10;99.90;;;;;;4976025;28;20039;-91
2022/09/14 04:29:57;;;;;;;26.88;11.90;;;10.10;99.90;;;;;;4968890;28;20496;-91
2022/09/14 04:32:23;;;;;;;23.95;11.68;;;10.10;99.90;;;;;;4977505;28;20174;-91
2022/09/14 04:34:48;;;;;;;25.15;11.38;;;10.10;99.90;;;;;;4977126;28;20031;-91
2022/09/14 04:37:14;;;;;;;23.35;11.75;;;10.10;99.90;;;;;;4970737;28;20663;-92
2022/09/14 04:39:41;;;;;;;24.80;11.35;;;10.20;99.90;;;;;;4976947;28;20038;-92
2022/09/14 04:42:06;;;;;;;22.77;11.18;;;10.20;99.90;;;;;;4969661;28;20114;-90
2022/09/14 04:44:32;;;;;;;24.13;12.02;;;10.20;99.90;;;;;;4976776;28;20059;-91
2022/09/14 04:46:58;;;;;;;27.63;12.30;;;10.20;99.90;;;;;;4976494;28;20027;-90
2022/09/14 04:49:25;;;;;;;22.48;10.85;;;10.30;99.90;;;;;;4971652;28;20033;-91
2022/09/14 04:51:50;;;;;;;22.85;11.30;;;10.30;99.90;;;;;;4975130;28;20039;-90
2022/09/14 04:54:17;;;;;;;18.10;9.52;;;10.30;99.90;;;;;;4970326;28;20031;-91
2022/09/14 04:56:43;;;;;;;20.13;10.68;;;10.40;99.90;;;;;;4975311;28;20019;-91
2022/09/14 04:59:10;;;;;;;24.88;11.45;;;10.40;99.90;;;;;;4969323;28;20515;-91
2022/09/14 05:01:42;;;;;;;25.25;11.75;;;10.40;99.90;;;;;;4975525;28;20058;-91
2022/09/14 05:04:11;;;;;;;26.08;12.70;;;10.40;99.90;;;;;;4953196;28;20042;-91
2022/09/14 05:06:43;;;;;;;26.30;11.48;;;10.40;99.90;;;;;;4959136;28;20026;-91
2022/09/14 05:09:15;;;;;;;24.23;11.68;;;10.40;99.90;;;;;;4976239;28;20484;-91
2022/09/14 05:11:41;;;;;;;23.83;11.50;;;10.30;99.90;;;;;;4973342;28;20030;-91
2022/09/14 05:14:11;;;;;;;20.90;11.13;;;10.40;99.90;;;;;;4968268;28;20026;-92
2022/09/14 05:16:38;;;;;;;24.00;11.18;;;10.30;99.90;;;;;;4974946;28;20488;-91
2022/09/14 05:19:06;;;;;;;20.70;9.93;;;10.30;99.90;;;;;;4974443;28;20031;-91
2022/09/14 05:21:34;;;;;;;20.02;9.88;;;10.20;99.90;;;;;;4979819;28;20049;-91
2022/09/14 05:24:02;;;;;;;16.48;9.27;;;10.20;99.90;;;;;;4979005;28;20038;-91
2022/09/14 05:26:30;;;;;;;15.75;8.93;;;10.10;99.90;;;;;;4981210;28;20038;-91
2022/09/14 05:28:57;;;;;;;23.30;10.90;;;10.00;99.90;;;;;;4991011;28;20041;-91
2022/09/14 05:31:24;;;;;;;23.42;10.90;;;10.00;99.90;;;;;;4989543;28;20031;-91
2022/09/14 05:33:51;;;;;;;19.83;10.55;;;10.00;99.90;;;;;;4981154;28;20022;-91
2022/09/14 05:36:17;;;;;;;22.75;10.07;;;9.90;99.90;;;;;;4979923;28;20027;-91
2022/09/14 05:38:42;;;;;;;17.60;9.38;;;9.90;99.90;;;;;;4977684;28;20041;-91
2022/09/14 05:41:11;;;;;;;19.15;9.18;;;9.90;99.90;;;;;;4977951;28;20125;-89
2022/09/14 05:43:37;;;;;;;18.95;9.25;;;9.90;99.90;;;;;;4995239;28;20018;-90
2022/09/14 05:46:05;;;;;;;18.13;9.02;;;9.80;99.90;;;;;;4977337;28;20058;-90
2022/09/14 05:48:36;;;;;;;20.58;10.27;;;9.80;99.90;;;;;;4977487;28;20038;-90
2022/09/14 05:51:08;;;;;;;25.63;11.40;;;9.80;99.90;;;;;;4998973;28;20026;-91
2022/09/14 05:53:35;;;;;;;25.40;11.10;;;9.80;99.90;;;;;;5005855;28;20041;-91
2022/09/14 05:56:10;;;;;;;22.00;11.63;;;9.80;99.90;;;;;;4984884;28;20357;-90
2022/09/14 05:58:41;;;;;;;26.13;11.90;;;9.80;99.90;;;;;;4966970;28;20038;-90
2022/09/14 06:01:25;;;;;;;30.58;11.98;;;9.80;99.90;;;;;;4999502;28;20052;-90
2022/09/14 06:03:56;;;;;;;38.67;12.63;;;9.80;99.90;;;;;;4979381;28;20022;-91
2022/09/14 06:06:22;;;;;;;;;;;9.80;99.90;;;;;;4995942;28;20073;-92
2022/09/14 06:08:51;;;;;;;143.20;13.77;;;9.80;99.90;;;;;;4978607;28;19917;-92
2022/09/14 06:11:18;;;;;;;59.97;12.40;;;9.70;99.90;;;;;;4980647;28;20103;-92
2022/09/14 06:13:45;;;;;;;126.25;12.40;;;9.70;99.90;;;;;;4984542;28;20033;-92
2022/09/14 06:16:16;;;;;;;69.63;14.45;;;9.70;99.90;;;;;;4982517;28;20026;-91
2022/09/14 06:18:57;;;;;;;182.35;12.95;;;9.70;99.90;;;;;;4984218;28;20026;-92
2022/09/14 06:21:31;;;;;;;77.03;10.77;;;9.60;99.90;;;;;;4999483;28;20030;-91
2022/09/14 06:24:16;;;;;;;35.67;11.40;;;9.60;99.90;;;;;;4981841;28;20034;-92
2022/09/14 06:26:43;;;;;;;76.80;12.90;;;9.60;99.90;;;;;;4980544;28;20038;-91
2022/09/14 06:29:12;;;;;;;58.78;12.23;;;9.70;99.90;;;;;;4995360;28;20054;-91
2022/09/14 06:31:39;;;;;;;61.58;12.02;;;9.70;99.90;;;;;;4976932;28;20389;-91
2022/09/14 06:34:05;;;;;;;54.97;12.38;;;9.70;99.90;;;;;;4957603;28;20395;-91
2022/09/14 06:36:33;;;;;;;101.55;13.05;;;9.70;99.90;;;;;;4975623;28;20054;-91
2022/09/14 06:39:02;;;;;;;95.70;10.93;;;9.70;99.90;;;;;;4970864;28;20041;-91
2022/09/14 06:41:31;;;;;;;48.55;11.50;;;9.80;99.90;;;;;;4980218;28;20030;-91
2022/09/14 06:43:58;;;;;;;48.90;11.15;;;9.80;99.90;;;;;;4978368;28;20061;-91
2022/09/14 06:46:27;;;;;;;37.80;11.82;;;9.80;99.90;;;;;;4977498;28;20019;-90
2022/09/14 06:49:02;;;;;;;24.88;12.10;;;9.90;99.90;;;;;;4977553;28;20034;-92
2022/09/14 06:51:33;;;;;;;94.95;11.23;;;9.90;99.90;;;;;;4991942;28;20043;-91
2022/09/14 06:54:00;;;;;;;29.25;10.10;;;10.00;99.90;;;;;;4982441;28;20057;-91
2022/09/14 06:56:35;;;;;;;35.20;9.68;;;10.00;99.90;;;;;;4986479;28;20473;-91
2022/09/14 06:59:06;;;;;;;24.13;10.65;;;10.00;99.90;;;;;;4982921;28;20030;-91
2022/09/14 07:01:33;;;;;;;38.58;11.45;;;10.00;99.90;;;;;;5014605;28;20030;-91
2022/09/14 07:04:00;;;;;;;47.28;11.75;;;10.10;99.90;;;;;;4989992;28;20039;-92
2022/09/14 07:06:31;;;;;;;24.92;11.50;;;10.10;99.90;;;;;;4977889;28;20081;-91
2022/09/14 07:08:56;;;;;;;33.70;11.10;;;10.20;99.90;;;;;;4977953;28;20071;-91
2022/09/14 07:11:25;;;;;;;52.45;11.88;;;10.20;99.90;;;;;;4969330;28;20460;-91
2022/09/14 07:13:54;;;;;;;23.63;10.13;;;10.20;99.90;;;;;;4968719;28;20046;-93
2022/09/14 07:16:20;;;;;;;36.38;11.35;;;10.30;99.90;;;;;;4987104;28;20055;-91
2022/09/14 07:18:46;;;;;;;29.08;12.13;;;10.30;99.90;;;;;;4981795;28;20027;-92
2022/09/14 07:21:20;;;;;;;22.90;10.52;;;10.30;99.90;;;;;;4963909;28;20518;-91
2022/09/14 07:23:48;;;;;;;24.10;10.88;;;10.40;99.90;;;;;;4972880;28;20110;-91
2022/09/14 07:26:20;;;;;;;28.08;10.82;;;10.50;99.90;;;;;;4972578;28;20026;-91
2022/09/14 07:28:48;;;;;;;20.98;9.98;;;10.50;99.90;;;;;;4966148;28;20050;-91
2022/09/14 07:31:23;;;;;;;16.25;9.15;;;10.60;99.90;;;;;;4965001;28;20023;-92
2022/09/14 07:34:04;;;;;;;19.73;8.90;;;10.70;99.90;;;;;;4967835;28;20065;-91
2022/09/14 07:36:36;;;;;;;17.70;8.57;;;10.80;99.90;;;;;;4954428;28;20054;-92
2022/09/14 07:39:04;;;;;;;15.80;8.27;;;11.00;99.90;;;;;;4969906;28;20114;-91
2022/09/14 07:41:32;;;;;;;17.42;7.85;;;11.10;99.90;;;;;;4966869;28;20388;-92
2022/09/14 07:43:59;;;;;;;12.48;7.57;;;11.20;99.90;;;;;;4971691;28;20027;-92
2022/09/14 07:46:31;;;;;;;18.00;8.18;;;11.30;99.90;;;;;;4969073;28;20019;-92
2022/09/14 07:49:03;;;;;;;12.32;7.57;;;11.40;99.90;;;;;;4964885;28;20050;-92
2022/09/14 07:51:30;;;;;;;14.32;7.43;;;11.60;99.90;;;;;;4972970;28;20027;-91
2022/09/14 07:54:00;;;;;;;15.55;7.47;;;11.70;99.90;;;;;;4970307;28;20039;-92
2022/09/14 07:56:27;;;;;;;16.08;8.13;;;11.90;99.90;;;;;;4973511;28;20062;-92
2022/09/14 07:58:56;;;;;;;16.10;7.63;;;12.00;99.90;;;;;;4969314;28;20428;-91
2022/09/14 08:01:23;;;;;;;16.92;7.40;;;12.10;99.90;;;;;;4960691;28;20056;-91
2022/09/14 08:03:50;;;;;;;12.30;6.35;;;12.20;99.90;;;;;;4975905;28;20026;-91
2022/09/14 08:06:27;;;;;;;11.32;6.38;;;12.20;99.90;;;;;;4970260;28;20035;-91
2022/09/14 08:08:55;;;;;;;9.13;5.85;;;12.40;99.90;;;;;;4969872;28;20066;-90
2022/09/14 08:11:27;;;;;;;10.85;6.88;;;12.50;99.90;;;;;;4968938;28;20495;-91
2022/09/14 08:13:58;;;;;;;13.07;8.10;;;12.60;99.90;;;;;;4968691;28;20042;-90
2022/09/14 08:16:25;;;;;;;16.23;7.65;;;12.70;99.90;;;;;;4969757;28;20035;-90
2022/09/14 08:18:59;;;;;;;15.57;5.82;;;12.80;99.90;;;;;;4968995;28;20022;-90
2022/09/14 08:21:27;;;;;;;13.05;7.15;;;12.90;99.90;;;;;;4988584;28;20025;-91
2022/09/14 08:23:54;;;;;;;9.05;4.53;;;13.00;99.90;;;;;;4980639;28;20046;-91
2022/09/14 08:26:23;;;;;;;9.23;4.68;;;13.00;99.90;;;;;;4978300;28;20034;-90
2022/09/14 08:28:50;;;;;;;10.18;4.00;;;13.20;99.90;;;;;;4979012;28;20038;-90
2022/09/14 08:31:20;;;;;;;10.27;4.72;;;13.20;99.90;;;;;;4978957;28;20030;-90
2022/09/14 08:33:49;;;;;;;5.32;3.65;;;13.30;99.90;;;;;;4976673;28;20058;-89
2022/09/14 08:36:18;;;;;;;7.70;3.72;;;13.40;99.90;;;;;;4973363;28;20026;-90
2022/09/14 08:38:47;;;;;;;10.40;3.63;;;13.60;99.90;;;;;;4962948;28;20058;-90
2022/09/14 08:41:31;;;;;;;9.80;3.25;;;13.70;99.90;;;;;;4980725;28;20034;-89
2022/09/14 08:44:13;;;;;;;13.27;3.30;;;13.80;99.90;;;;;;4959631;28;20113;-90
2022/09/14 08:47:01;;;;;;;10.63;3.10;;;14.00;99.90;;;;;;4977250;28;20043;-90
2022/09/14 08:49:50;;;;;;;7.43;2.20;;;14.10;99.90;;;;;;4960385;28;20049;-91
2022/09/14 08:52:22;;;;;;;8.95;2.42;;;14.20;99.90;;;;;;4967110;28;20058;-89
2022/09/14 08:54:55;;;;;;;8.23;2.80;;;14.30;99.90;;;;;;4968381;28;20031;-89
2022/09/14 08:57:45;;;;;;;9.02;2.70;;;14.40;99.90;;;;;;4965448;28;20125;-89
2022/09/14 09:00:18;;;;;;;9.85;2.58;;;14.40;99.90;;;;;;4967111;28;20037;-88
2022/09/14 09:03:02;;;;;;;6.97;2.30;;;14.50;99.90;;;;;;4968502;28;20034;-89
2022/09/14 09:05:42;;;;;;;5.95;3.25;;;14.60;99.90;;;;;;4974095;28;20026;-87
2022/09/14 09:08:11;;;;;;;7.05;2.55;;;14.60;99.90;;;;;;4973664;28;20066;-89
2022/09/14 09:10:38;;;;;;;10.95;2.97;;;14.70;99.90;;;;;;4970785;28;20023;-89
2022/09/14 09:13:08;;;;;;;12.25;3.10;;;14.80;99.90;;;;;;4967087;28;20432;-88
2022/09/14 09:15:57;;;;;;;10.77;3.80;;;14.80;99.90;;;;;;4967926;28;20047;-89
2022/09/14 09:18:34;;;;;;;7.45;3.28;;;14.90;99.90;;;;;;4967965;28;20480;-90
2022/09/14 09:21:09;;;;;;;8.82;3.42;;;15.00;99.90;;;;;;4977852;28;20026;-89
2022/09/14 09:23:36;;;;;;;9.23;3.30;;;15.20;99.90;;;;;;4977997;28;20088;-90
2022/09/14 09:26:06;;;;;;;9.07;3.10;;;15.20;99.90;;;;;;4978956;28;20149;-90
2022/09/14 09:28:33;;;;;;;8.18;3.30;;;15.40;99.90;;;;;;4978218;28;20034;-90
2022/09/14 09:31:06;;;;;;;8.63;2.75;;;15.60;99.90;;;;;;4978235;28;20022;-92
2022/09/14 09:33:37;;;;;;;6.90;2.63;;;15.70;99.90;;;;;;4979366;28;20090;-89
2022/09/14 09:36:08;;;;;;;10.07;3.30;;;15.80;99.90;;;;;;4983008;28;20022;-90
2022/09/14 09:38:33;;;;;;;6.72;2.97;;;16.10;99.90;;;;;;4971903;28;20105;-90
2022/09/14 09:41:16;;;;;;;6.45;2.78;;;16.20;99.90;;;;;;4966233;28;20531;-91
2022/09/14 09:44:09;;;;;;;8.93;3.10;;;16.40;99.90;;;;;;4964213;28;20019;-90
2022/09/14 09:46:47;;;;;;;8.48;2.85;;;16.50;99.90;;;;;;4970393;28;20127;-90
2022/09/14 09:49:35;;;;;;;11.13;2.63;;;16.60;99.90;;;;;;4972952;28;20088;-90
2022/09/14 09:52:15;;;;;;;11.95;3.28;;;16.80;99.90;;;;;;4975716;28;20033;-90
2022/09/14 09:54:54;;;;;;;9.90;2.70;;;17.00;99.90;;;;;;4977999;28;20033;-90
2022/09/14 09:57:27;;;;;;;9.98;2.70;;;17.20;99.90;;;;;;4977686;28;20369;-88
2022/09/14 10:00:10;;;;;;;9.27;3.70;;;17.40;99.90;;;;;;4978119;28;20026;-90
2022/09/14 10:02:36;;;;;;;11.60;3.08;;;17.60;99.90;;;;;;4976447;28;20054;-90
2022/09/14 10:05:32;;;;;;;8.68;3.05;;;17.70;99.90;;;;;;4974540;28;20030;-90
2022/09/14 10:08:04;;;;;;;11.77;2.95;;;17.80;99.90;;;;;;4968645;28;20404;-91
2022/09/14 10:10:38;;;;;;;5.38;2.67;;;17.70;99.90;;;;;;4963590;28;20121;-90
2022/09/14 10:13:14;;;;;;;10.10;2.78;;;17.70;99.90;;;;;;4967732;28;20061;-91
2022/09/14 10:15:42;;;;;;;9.30;3.42;;;17.60;99.90;;;;;;4985482;28;20021;-89
2022/09/14 10:18:10;;;;;;;12.77;3.53;;;17.60;99.90;;;;;;4968968;28;20361;-90
2022/09/14 10:20:37;;;;;;;9.43;2.58;;;17.50;99.90;;;;;;4967866;28;20050;-91
2022/09/14 10:23:18;;;;;;;10.10;2.97;;;17.50;99.90;;;;;;4968803;28;20125;-89
2022/09/14 10:25:46;;;;;;;10.57;2.42;;;17.40;99.90;;;;;;4976846;28;20022;-89
2022/09/14 10:28:27;;;;;;;8.05;2.38;;;17.30;99.90;;;;;;4977200;28;20065;-89
2022/09/14 10:31:03;;;;;;;6.35;1.90;;;17.20;99.90;;;;;;4977071;28;20026;-89
2022/09/14 10:33:29;;;;;;;10.60;3.17;;;17.30;99.90;;;;;;4977595;28;20092;-89
2022/09/14 10:35:55;;;;;;;8.75;2.10;;;17.20;99.90;;;;;;4976529;28;20026;-90
2022/09/14 10:38:25;;;;;;;6.75;2.03;;;17.20;99.90;;;;;;4994724;28;20026;-89
2022/09/14 10:41:02;;;;;;;8.17;2.10;;;17.20;99.90;;;;;;4980572;28;20338;-90
2022/09/14 10:43:55;;;;;;;7.47;1.75;;;17.20;99.90;;;;;;4996906;28;20029;-90
2022/09/14 10:46:28;;;;;;;12.45;2.35;;;17.30;99.90;;;;;;4996900;28;20499;-89
2022/09/14 10:49:20;;;;;;;7.95;2.40;;;17.40;99.90;;;;;;4996959;28;20029;-90
2022/09/14 10:51:52;;;;;;;6.15;2.00;;;17.60;99.90;;;;;;4996483;28;20101;-90
2022/09/14 10:54:42;;;;;;;15.02;2.55;;;17.80;99.90;;;;;;4967637;28;20030;-90
2022/09/14 10:57:11;;;;;;;;;;;17.90;99.90;;;;;;4972192;28;20027;-89
2022/09/14 10:59:43;;;;;;;;;;;18.00;99.90;;;;;;4969873;28;19962;-89
2022/09/14 11:02:31;;;;;;;;;;;18.20;99.90;;;;;;4976315;28;19956;-92
2022/09/14 11:05:10;;;;;;;;;;;18.30;99.90;;;;;;4975539;28;19913;-89
2022/09/14 11:07:40;;;;;;;;;;;18.30;99.90;;;;;;4975825;28;19960;-89
2022/09/14 11:10:14;;;;;;;;;;;18.10;99.90;;;;;;4968537;28;19972;-89
2022/09/14 11:13:09;;;;;;;;;;;18.00;99.90;;;;;;4976426;28;19985;-92
2022/09/14 11:15:41;;;;;;;;;;;17.90;99.90;;;;;;4959974;28;19910;-89
2022/09/14 11:18:19;;;;;;;;;;;17.70;99.90;;;;;;4969714;28;20041;-89
2022/09/14 11:20:44;;;;;;;;;;;17.60;99.90;;;;;;4981081;28;19946;-91
2022/09/14 11:23:45;;;;;;;;;;;17.50;99.90;;;;;;4978245;28;19918;-90
2022/09/14 11:26:20;;;;;;;;;;;17.40;99.90;;;;;;4948930;28;19916;-89
2022/09/14 11:28:51;;;;;;;;;;;17.10;99.90;;;;;;4964500;28;19940;-89
2022/09/14 11:31:17;;;;;;;;;;;16.90;99.90;;;;;;4978884;28;19968;-89
2022/09/14 11:33:49;;;;;;;;;;;16.70;99.90;;;;;;4981825;28;19906;-90
2022/09/14 11:36:18;;;;;;;;;;;16.70;99.90;;;;;;4982483;28;19910;-89
2022/09/14 11:38:51;;;;;;;;;;;16.60;99.90;;;;;;4981886;28;19906;-90
2022/09/14 11:41:16;;;;;;;;;;;16.60;99.90;;;;;;4982341;28;20017;-90
2022/09/14 11:43:51;;;;;;;;;;;16.60;99.90;;;;;;4991826;28;19905;-89
2022/09/14 11:46:23;;;;;;;;;;;16.60;99.90;;;;;;4992414;28;19906;-89
2022/09/14 11:49:04;;;;;;;;;;;16.60;99.90;;;;;;4991989;28;19925;-91
2022/09/14 11:51:40;;;;;;;;;;;16.50;99.90;;;;;;4988916;28;19910;-88
2022/09/14 11:54:15;;;;;;;;;;;16.50;99.90;;;;;;4985101;28;19945;-89
2022/09/14 11:56:42;;;;;;;;;;;16.50;99.90;;;;;;4982844;28;19906;-89
2022/09/14 11:59:27;;;;;;;;;;;16.50;99.90;;;;;;4992391;28;19976;-88
2022/09/14 12:01:53;;;;;;;;;;;16.50;99.90;;;;;;4981753;28;19937;-89
2022/09/14 12:04:18;;;;;;;;;;;16.40;99.90;;;;;;4975430;28;19906;-89
2022/09/14 12:06:46;;;;;;;;;;;16.40;99.90;;;;;;4979317;28;19932;-88
2022/09/14 12:09:23;;;;;;;;;;;16.40;99.90;;;;;;4986071;28;19932;-89
2022/09/14 12:12:07;;;;;;;;;;;16.40;99.90;;;;;;4977902;28;20358;-89
2022/09/14 12:14:39;;;;;;;;;;;16.40;99.90;;;;;;4970150;28;19952;-89
2022/09/14 12:17:16;;;;;;;;;;;16.50;99.90;;;;;;4960795;28;19910;-89
2022/09/14 12:19:45;;;;;;;;;;;16.60;99.90;;;;;;4969479;28;20004;-89
2022/09/14 12:22:27;;;;;;;;;;;16.60;99.90;;;;;;4969969;28;19918;-89
2022/09/14 12:24:59;;;;;;;;;;;16.70;99.90;;;;;;4978307;28;19968;-89
2022/09/14 12:27:28;;;;;;;;;;;16.80;99.90;;;;;;4968015;28;19929;-90
2022/09/14 12:29:53;;;;;;;;;;;16.90;99.90;;;;;;4984709;28;20052;-88
2022/09/14 12:32:40;;;;;;;;;;;17.00;99.90;;;;;;4970046;28;20419;-88
2022/09/14 12:35:27;;;;;;;;;;;17.10;99.90;;;;;;4959779;28;19946;-88
2022/09/14 12:37:54;;;;;;;;;;;17.20;99.90;;;;;;4991929;28;20382;-87
2022/09/14 12:40:19;;;;;;;;;;;17.30;99.90;;;;;;4959805;28;20288;-87
2022/09/14 12:42:45;;;;;;;;;;;17.50;99.90;;;;;;4992641;28;20002;-87
2022/09/14 12:45:29;;;;;;;;;;;17.80;99.90;;;;;;4963271;28;19917;-90
2022/09/14 12:47:55;;;;;;;;;;;18.20;99.90;;;;;;5001766;28;19918;-88
2022/09/14 12:50:21;;;;;;;;;;;18.70;99.80;;;;;;4959726;28;20386;-88
2022/09/14 12:52:53;;;;;;;;;;;19.20;98.80;;;;;;4964525;28;19906;-88
2022/09/14 12:55:44;;;;;;;;;;;19.70;97.50;;;;;;4959008;28;19906;-89
2022/09/14 12:58:16;;;;;;;;;;;20.10;96.00;;;;;;4962093;28;20397;-89
2022/09/14 13:01:00;;;;;;;;;;;20.40;94.40;;;;;;4977976;28;19913;-88
2022/09/14 13:03:35;;;;;;;;;;;20.60;93.00;;;;;;4959289;28;19921;-89
2022/09/14 13:06:01;;;;;;;;;;;20.80;92.10;;;;;;4959211;28;20004;-89
2022/09/14 13:08:27;;;;;;;;;;;21.10;91.80;;;;;;4959265;28;19921;-89
2022/09/14 13:10:53;;;;;;;;;;;21.50;91.10;;;;;;4959264;28;19906;-90
2022/09/14 13:13:25;;;;;;;;;;;21.60;88.10;;;;;;4959704;28;19907;-90
2022/09/14 13:15:52;;;;;;;;;;;21.70;86.10;;;;;;4959136;28;20259;-90
2022/09/14 13:18:18;;;;;;;;;;;21.70;85.40;;;;;;4961771;28;19910;-89